Terminal Aerodrome Forecast
Issued by NWS

Home | Current Version | Previous Version | Text Only | Print | Product List | Glossary On
Versions: 1 2 3 4 5 6 7 8 9 10 11 12 13 14 15 16 17 18 19 20 21 22 23 24
000
FTUS42 KGSP 160500
TAFAND
TAF
KAND 160540Z 1606/1706 00000KT P6SM VCSH SCT011 BKN022
      TEMPO 1606/1608 5SM -RA BR BKN011 OVC022
     FM160800 00000KT 5SM BR OVC010
      TEMPO 1608/1610 3SM BR BKN006 OVC010
     FM161000 00000KT 4SM BR OVC004
     FM161300 26004KT P6SM SCT040
     FM162000 27005KT P6SM BKN050 PROB30 1621/1703 4SM TSRA
      BKN040CB=

USA.gov is the U.S. government's official web portal to all federal, state and local government web resources and services.